Terminal Aerodrome Forecast
Issued by NWS

Home | Current Version | Previous Version | Text Only | Print | Product List | Glossary Off
Versions: 1 2 3 4 5 6 7 8 9 10 11 12 13

193
FTUS43 KMPX 201735
TAFRWF
TAF
KRWF 201735Z 2018/2118 01007KT P6SM BKN110
     FM210000 35005KT P6SM BKN250
     FM211200 35008KT P6SM BKN250=

USA.gov is the U.S. government's official web portal to all federal, state and local government web resources and services.